sensor_id;sensor_type;location;lat;lon;timestamp;temperature;humidity
15298;DHT22;7750;48.796;9.026;2023-07-02T00:02:07;20.20;76.90
15298;DHT22;7750;48.796;9.026;2023-07-02T00:07:07;20.20;76.90
15298;DHT22;7750;48.796;9.026;2023-07-02T00:12:08;20.10;76.60
15298;DHT22;7750;48.796;9.026;2023-07-02T00:17:09;20.10;76.50
15298;DHT22;7750;48.796;9.026;2023-07-02T00:22:12;20.10;76.50
15298;DHT22;7750;48.796;9.026;2023-07-02T00:27:16;20.00;76.40
15298;DHT22;7750;48.796;9.026;2023-07-02T00:32:16;20.10;76.60
15298;DHT22;7750;48.796;9.026;2023-07-02T00:37:17;20.00;76.50
15298;DHT22;7750;48.796;9.026;2023-07-02T00:42:18;20.00;76.70
15298;DHT22;7750;48.796;9.026;2023-07-02T00:47:18;20.00;76.40
15298;DHT22;7750;48.796;9.026;2023-07-02T00:52:19;20.00;76.20
15298;DHT22;7750;48.796;9.026;2023-07-02T00:57:20;20.10;76.20
15298;DHT22;7750;48.796;9.026;2023-07-02T01:02:21;20.00;76.00
15298;DHT22;7750;48.796;9.026;2023-07-02T01:07:22;20.00;76.20
15298;DHT22;7750;48.796;9.026;2023-07-02T01:12:23;20.00;76.10
15298;DHT22;7750;48.796;9.026;2023-07-02T01:17:24;20.00;76.10
15298;DHT22;7750;48.796;9.026;2023-07-02T01:22:28;20.00;76.10
15298;DHT22;7750;48.796;9.026;2023-07-02T01:27:29;20.00;76.00
15298;DHT22;7750;48.796;9.026;2023-07-02T01:32:30;20.00;76.00
15298;DHT22;7750;48.796;9.026;2023-07-02T01:37:30;20.00;76.10
15298;DHT22;7750;48.796;9.026;2023-07-02T01:42:37;20.00;75.90
15298;DHT22;7750;48.796;9.026;2023-07-02T01:47:38;20.00;75.80
15298;DHT22;7750;48.796;9.026;2023-07-02T01:52:39;20.00;75.70
15298;DHT22;7750;48.796;9.026;2023-07-02T01:57:40;19.90;75.60
15298;DHT22;7750;48.796;9.026;2023-07-02T02:02:40;19.90;75.50
15298;DHT22;7750;48.796;9.026;2023-07-02T02:07:41;19.90;75.50
15298;DHT22;7750;48.796;9.026;2023-07-02T02:12:42;19.80;75.50
15298;DHT22;7750;48.796;9.026;2023-07-02T02:17:42;19.80;75.60
15298;DHT22;7750;48.796;9.026;2023-07-02T02:22:43;19.80;75.70
15298;DHT22;7750;48.796;9.026;2023-07-02T02:27:43;19.70;75.90
15298;DHT22;7750;48.796;9.026;2023-07-02T02:32:44;19.70;76.20
15298;DHT22;7750;48.796;9.026;2023-07-02T02:37:45;19.70;76.30
15298;DHT22;7750;48.796;9.026;2023-07-02T02:42:45;19.80;76.30
15298;DHT22;7750;48.796;9.026;2023-07-02T02:47:46;19.70;76.10
15298;DHT22;7750;48.796;9.026;2023-07-02T02:52:47;19.70;76.20
15298;DHT22;7750;48.796;9.026;2023-07-02T02:57:47;19.70;76.50
15298;DHT22;7750;48.796;9.026;2023-07-02T03:02:48;19.70;76.90
15298;DHT22;7750;48.796;9.026;2023-07-02T03:07:50;19.60;77.00
15298;DHT22;7750;48.796;9.026;2023-07-02T03:12:50;19.50;77.70
15298;DHT22;7750;48.796;9.026;2023-07-02T03:17:51;19.40;78.20
15298;DHT22;7750;48.796;9.026;2023-07-02T03:22:51;19.30;78.50
15298;DHT22;7750;48.796;9.026;2023-07-02T03:27:52;19.20;78.70
15298;DHT22;7750;48.796;9.026;2023-07-02T03:32:53;19.10;78.70
15298;DHT22;7750;48.796;9.026;2023-07-02T03:37:53;19.10;79.10
15298;DHT22;7750;48.796;9.026;2023-07-02T03:42:54;19.00;79.20
15298;DHT22;7750;48.796;9.026;2023-07-02T03:47:54;18.90;79.20
15298;DHT22;7750;48.796;9.026;2023-07-02T03:52:55;18.90;79.30
15298;DHT22;7750;48.796;9.026;2023-07-02T03:57:56;18.80;79.00
15298;DHT22;7750;48.796;9.026;2023-07-02T04:02:56;18.80;79.30
15298;DHT22;7750;48.796;9.026;2023-07-02T04:07:57;18.70;79.20
15298;DHT22;7750;48.796;9.026;2023-07-02T04:12:57;18.70;79.00
15298;DHT22;7750;48.796;9.026;2023-07-02T04:17:58;18.60;79.10
15298;DHT22;7750;48.796;9.026;2023-07-02T04:22:59;18.60;79.00
15298;DHT22;7750;48.796;9.026;2023-07-02T04:27:59;18.60;78.90
15298;DHT22;7750;48.796;9.026;2023-07-02T04:33:00;18.60;78.90
15298;DHT22;7750;48.796;9.026;2023-07-02T04:38:01;18.60;78.80
15298;DHT22;7750;48.796;9.026;2023-07-02T04:43:02;18.60;78.70
15298;DHT22;7750;48.796;9.026;2023-07-02T04:48:06;18.50;78.70
15298;DHT22;7750;48.796;9.026;2023-07-02T04:53:06;18.50;79.20
15298;DHT22;7750;48.796;9.026;2023-07-02T04:58:07;18.60;79.40
15298;DHT22;7750;48.796;9.026;2023-07-02T05:03:08;18.60;79.60
15298;DHT22;7750;48.796;9.026;2023-07-02T05:08:08;18.60;79.40
15298;DHT22;7750;48.796;9.026;2023-07-02T05:13:09;18.70;79.20
15298;DHT22;7750;48.796;9.026;2023-07-02T05:18:09;18.70;79.00
15298;DHT22;7750;48.796;9.026;2023-07-02T05:23:10;18.70;78.60
15298;DHT22;7750;48.796;9.026;2023-07-02T06:43:17;20.30;72.50
15298;DHT22;7750;48.796;9.026;2023-07-02T06:48:41;20.50;72.40
15298;DHT22;7750;48.796;9.026;2023-07-02T06:59:32;20.90;72.30
15298;DHT22;7750;48.796;9.026;2023-07-02T07:04:34;20.90;71.10
15298;DHT22;7750;48.796;9.026;2023-07-02T07:09:37;20.90;70.10
15298;DHT22;7750;48.796;9.026;2023-07-02T07:15:30;21.10;70.00
15298;DHT22;7750;48.796;9.026;2023-07-02T07:21:03;21.30;67.10
15298;DHT22;7750;48.796;9.026;2023-07-02T07:31:17;21.70;65.40
15298;DHT22;7750;48.796;9.026;2023-07-02T07:36:21;21.90;63.70
15298;DHT22;7750;48.796;9.026;2023-07-02T07:46:44;22.10;62.50
15298;DHT22;7750;48.796;9.026;2023-07-02T07:57:30;22.40;60.30
15298;DHT22;7750;48.796;9.026;2023-07-02T08:02:42;22.30;59.50
15298;DHT22;7750;48.796;9.026;2023-07-02T08:07:52;22.20;60.00
15298;DHT22;7750;48.796;9.026;2023-07-02T08:13:05;22.20;61.10
15298;DHT22;7750;48.796;9.026;2023-07-02T08:18:09;22.40;59.70
15298;DHT22;7750;48.796;9.026;2023-07-02T08:23:17;22.40;59.30
15298;DHT22;7750;48.796;9.026;2023-07-02T08:28:29;22.30;59.50
15298;DHT22;7750;48.796;9.026;2023-07-02T08:34:21;22.40;60.20
15298;DHT22;7750;48.796;9.026;2023-07-02T08:39:21;22.60;59.00
15298;DHT22;7750;48.796;9.026;2023-07-02T08:44:22;22.90;59.60
15298;DHT22;7750;48.796;9.026;2023-07-02T09:24:31;23.30;55.50
15298;DHT22;7750;48.796;9.026;2023-07-02T09:30:15;23.30;54.70
15298;DHT22;7750;48.796;9.026;2023-07-02T09:35:28;23.40;55.70
15298;DHT22;7750;48.796;9.026;2023-07-02T09:40:31;23.50;55.50
15298;DHT22;7750;48.796;9.026;2023-07-02T09:45:53;23.80;55.90
15298;DHT22;7750;48.796;9.026;2023-07-02T09:51:01;23.90;54.60
15298;DHT22;7750;48.796;9.026;2023-07-02T09:56:07;24.10;54.40
15298;DHT22;7750;48.796;9.026;2023-07-02T10:01:17;24.10;54.90
15298;DHT22;7750;48.796;9.026;2023-07-02T10:12:46;24.10;54.30
15298;DHT22;7750;48.796;9.026;2023-07-02T10:23:46;24.00;54.10
15298;DHT22;7750;48.796;9.026;2023-07-02T10:29:18;24.00;53.90
15298;DHT22;7750;48.796;9.026;2023-07-02T10:34:55;24.10;54.50
15298;DHT22;7750;48.796;9.026;2023-07-02T10:39:56;24.10;54.70
15298;DHT22;7750;48.796;9.026;2023-07-02T10:45:33;24.30;52.70
15298;DHT22;7750;48.796;9.026;2023-07-02T10:50:40;24.50;52.30
15298;DHT22;7750;48.796;9.026;2023-07-02T10:55:43;24.70;52.00
15298;DHT22;7750;48.796;9.026;2023-07-02T11:12:16;25.10;50.80
15298;DHT22;7750;48.796;9.026;2023-07-02T11:23:24;25.20;50.70
15298;DHT22;7750;48.796;9.026;2023-07-02T11:28:27;25.30;50.20
15298;DHT22;7750;48.796;9.026;2023-07-02T11:33:38;25.40;49.80
15298;DHT22;7750;48.796;9.026;2023-07-02T11:38:39;25.60;50.70
15298;DHT22;7750;48.796;9.026;2023-07-02T11:43:39;25.70;49.40
15298;DHT22;7750;48.796;9.026;2023-07-02T11:48:40;25.90;49.90
15298;DHT22;7750;48.796;9.026;2023-07-02T11:53:41;26.00;48.00
15298;DHT22;7750;48.796;9.026;2023-07-02T11:58:42;26.00;48.70
15298;DHT22;7750;48.796;9.026;2023-07-02T12:03:44;26.00;47.00
15298;DHT22;7750;48.796;9.026;2023-07-02T12:08:45;26.00;46.50
15298;DHT22;7750;48.796;9.026;2023-07-02T12:13:46;26.10;46.80
15298;DHT22;7750;48.796;9.026;2023-07-02T12:18:46;26.10;46.00
15298;DHT22;7750;48.796;9.026;2023-07-02T12:23:47;26.20;46.20
15298;DHT22;7750;48.796;9.026;2023-07-02T12:28:50;26.30;45.80
15298;DHT22;7750;48.796;9.026;2023-07-02T12:33:51;26.50;46.60
15298;DHT22;7750;48.796;9.026;2023-07-02T12:38:52;26.70;46.60
15298;DHT22;7750;48.796;9.026;2023-07-02T12:43:52;27.60;43.70
15298;DHT22;7750;48.796;9.026;2023-07-02T12:48:53;27.50;45.10
15298;DHT22;7750;48.796;9.026;2023-07-02T12:53:53;27.80;44.60
15298;DHT22;7750;48.796;9.026;2023-07-02T12:58:54;28.00;44.70
15298;DHT22;7750;48.796;9.026;2023-07-02T13:03:55;28.20;43.80
15298;DHT22;7750;48.796;9.026;2023-07-02T13:08:56;28.20;43.70
15298;DHT22;7750;48.796;9.026;2023-07-02T13:13:56;28.40;43.40
15298;DHT22;7750;48.796;9.026;2023-07-02T13:18:57;28.60;43.40
15298;DHT22;7750;48.796;9.026;2023-07-02T13:23:57;28.70;43.20
15298;DHT22;7750;48.796;9.026;2023-07-02T13:28:58;28.80;42.90
15298;DHT22;7750;48.796;9.026;2023-07-02T13:33:59;28.90;42.20
15298;DHT22;7750;48.796;9.026;2023-07-02T13:38:59;28.90;41.90
15298;DHT22;7750;48.796;9.026;2023-07-02T13:44:00;28.90;42.30
15298;DHT22;7750;48.796;9.026;2023-07-02T13:49:01;28.90;42.40
15298;DHT22;7750;48.796;9.026;2023-07-02T13:54:02;29.00;41.30
15298;DHT22;7750;48.796;9.026;2023-07-02T13:59:04;29.10;41.60
15298;DHT22;7750;48.796;9.026;2023-07-02T14:04:04;29.20;41.80
15298;DHT22;7750;48.796;9.026;2023-07-02T14:09:05;29.30;42.70
15298;DHT22;7750;48.796;9.026;2023-07-02T14:14:06;29.40;41.10
15298;DHT22;7750;48.796;9.026;2023-07-02T14:19:07;29.40;41.40
15298;DHT22;7750;48.796;9.026;2023-07-02T14:24:08;29.50;41.50
15298;DHT22;7750;48.796;9.026;2023-07-02T14:29:09;29.60;40.90
15298;DHT22;7750;48.796;9.026;2023-07-02T14:34:10;29.60;40.30
15298;DHT22;7750;48.796;9.026;2023-07-02T14:39:10;29.60;39.80
15298;DHT22;7750;48.796;9.026;2023-07-02T14:44:11;29.60;40.00
15298;DHT22;7750;48.796;9.026;2023-07-02T14:49:14;29.40;40.10
15298;DHT22;7750;48.796;9.026;2023-07-02T14:54:15;29.40;40.50
15298;DHT22;7750;48.796;9.026;2023-07-02T14:59:15;29.40;40.80
15298;DHT22;7750;48.796;9.026;2023-07-02T15:04:16;29.40;41.10
15298;DHT22;7750;48.796;9.026;2023-07-02T15:09:17;29.50;40.20
15298;DHT22;7750;48.796;9.026;2023-07-02T15:14:18;29.50;40.40
15298;DHT22;7750;48.796;9.026;2023-07-02T15:19:20;29.40;40.30
15298;DHT22;7750;48.796;9.026;2023-07-02T15:24:20;29.40;40.20
15298;DHT22;7750;48.796;9.026;2023-07-02T15:29:21;29.50;40.50
15298;DHT22;7750;48.796;9.026;2023-07-02T15:34:22;29.50;40.00
15298;DHT22;7750;48.796;9.026;2023-07-02T15:39:22;29.50;40.20
15298;DHT22;7750;48.796;9.026;2023-07-02T15:44:25;29.40;40.10
15298;DHT22;7750;48.796;9.026;2023-07-02T15:49:29;29.50;40.50
15298;DHT22;7750;48.796;9.026;2023-07-02T15:54:29;29.50;40.10
15298;DHT22;7750;48.796;9.026;2023-07-02T15:59:30;29.40;40.10
15298;DHT22;7750;48.796;9.026;2023-07-02T16:04:32;29.30;40.10
15298;DHT22;7750;48.796;9.026;2023-07-02T16:09:33;29.10;40.00
15298;DHT22;7750;48.796;9.026;2023-07-02T16:14:36;29.00;40.10
15298;DHT22;7750;48.796;9.026;2023-07-02T16:19:37;29.00;40.10
15298;DHT22;7750;48.796;9.026;2023-07-02T16:24:41;29.00;39.60
15298;DHT22;7750;48.796;9.026;2023-07-02T16:29:42;28.90;39.40
15298;DHT22;7750;48.796;9.026;2023-07-02T16:34:44;28.70;40.10
15298;DHT22;7750;48.796;9.026;2023-07-02T16:39:45;28.60;40.20
15298;DHT22;7750;48.796;9.026;2023-07-02T16:44:46;28.50;40.40
15298;DHT22;7750;48.796;9.026;2023-07-02T16:49:47;28.50;40.60
15298;DHT22;7750;48.796;9.026;2023-07-02T16:54:49;28.40;40.50
15298;DHT22;7750;48.796;9.026;2023-07-02T16:59:51;28.40;40.60
15298;DHT22;7750;48.796;9.026;2023-07-02T17:04:53;28.30;40.20
15298;DHT22;7750;48.796;9.026;2023-07-02T17:09:53;28.30;40.40
15298;DHT22;7750;48.796;9.026;2023-07-02T17:14:54;28.20;40.90
15298;DHT22;7750;48.796;9.026;2023-07-02T17:19:59;28.00;40.30
15298;DHT22;7750;48.796;9.026;2023-07-02T17:25:00;27.90;40.80
15298;DHT22;7750;48.796;9.026;2023-07-02T17:30:05;27.80;40.90
15298;DHT22;7750;48.796;9.026;2023-07-02T17:35:06;27.70;41.00
15298;DHT22;7750;48.796;9.026;2023-07-02T17:40:13;27.60;41.20
15298;DHT22;7750;48.796;9.026;2023-07-02T17:45:14;27.50;41.00
15298;DHT22;7750;48.796;9.026;2023-07-02T17:50:17;27.40;41.40
15298;DHT22;7750;48.796;9.026;2023-07-02T17:55:18;27.30;41.80
15298;DHT22;7750;48.796;9.026;2023-07-02T18:00:19;27.20;41.90
15298;DHT22;7750;48.796;9.026;2023-07-02T18:05:20;27.10;41.70
15298;DHT22;7750;48.796;9.026;2023-07-02T18:10:21;27.00;41.80
15298;DHT22;7750;48.796;9.026;2023-07-02T18:15:22;26.90;41.90
15298;DHT22;7750;48.796;9.026;2023-07-02T18:20:23;26.70;42.10
15298;DHT22;7750;48.796;9.026;2023-07-02T18:25:24;27.20;42.00
15298;DHT22;7750;48.796;9.026;2023-07-02T18:30:27;26.80;42.10
15298;DHT22;7750;48.796;9.026;2023-07-02T19:02:08;25.70;42.90
15298;DHT22;7750;48.796;9.026;2023-07-02T19:07:18;25.70;43.10
15298;DHT22;7750;48.796;9.026;2023-07-02T19:48:50;24.70;44.50
15298;DHT22;7750;48.796;9.026;2023-07-02T19:54:20;24.60;44.50
15298;DHT22;7750;48.796;9.026;2023-07-02T19:59:21;24.40;44.80
15298;DHT22;7750;48.796;9.026;2023-07-02T20:05:09;24.30;44.80
15298;DHT22;7750;48.796;9.026;2023-07-02T20:10:36;24.70;45.10
15298;DHT22;7750;48.796;9.026;2023-07-02T20:21:07;24.20;45.50
15298;DHT22;7750;48.796;9.026;2023-07-02T20:26:30;24.10;45.90
15298;DHT22;7750;48.796;9.026;2023-07-02T20:31:36;24.10;46.40
15298;DHT22;7750;48.796;9.026;2023-07-02T20:37:07;24.00;46.50
15298;DHT22;7750;48.796;9.026;2023-07-02T20:42:18;23.90;46.70
15298;DHT22;7750;48.796;9.026;2023-07-02T20:47:19;23.80;46.80
15298;DHT22;7750;48.796;9.026;2023-07-02T20:52:24;23.60;46.90
15298;DHT22;7750;48.796;9.026;2023-07-02T20:57:26;23.60;47.10
15298;DHT22;7750;48.796;9.026;2023-07-02T21:02:30;23.50;47.30
15298;DHT22;7750;48.796;9.026;2023-07-02T21:07:51;23.30;47.20
15298;DHT22;7750;48.796;9.026;2023-07-02T21:19:39;23.20;47.80
15298;DHT22;7750;48.796;9.026;2023-07-02T21:45:38;22.60;49.00
15298;DHT22;7750;48.796;9.026;2023-07-02T22:06:33;22.20;49.70
15298;DHT22;7750;48.796;9.026;2023-07-02T22:11:41;22.10;49.90
15298;DHT22;7750;48.796;9.026;2023-07-02T22:16:42;22.00;50.00
15298;DHT22;7750;48.796;9.026;2023-07-02T22:21:42;21.90;50.10
15298;DHT22;7750;48.796;9.026;2023-07-02T22:26:44;21.80;50.30
15298;DHT22;7750;48.796;9.026;2023-07-02T22:31:45;21.70;50.50
15298;DHT22;7750;48.796;9.026;2023-07-02T22:36:46;21.60;50.60
15298;DHT22;7750;48.796;9.026;2023-07-02T22:41:47;21.60;50.80
15298;DHT22;7750;48.796;9.026;2023-07-02T22:46:47;21.40;50.60
15298;DHT22;7750;48.796;9.026;2023-07-02T22:51:48;21.40;50.70
15298;DHT22;7750;48.796;9.026;2023-07-02T22:56:49;21.30;50.60
15298;DHT22;7750;48.796;9.026;2023-07-02T23:01:50;21.20;50.90
15298;DHT22;7750;48.796;9.026;2023-07-02T23:06:51;21.20;51.00
15298;DHT22;7750;48.796;9.026;2023-07-02T23:11:52;21.10;51.40
15298;DHT22;7750;48.796;9.026;2023-07-02T23:16:53;21.10;51.40
15298;DHT22;7750;48.796;9.026;2023-07-02T23:21:53;21.00;51.50
15298;DHT22;7750;48.796;9.026;2023-07-02T23:32:02;20.80;51.60
15298;DHT22;7750;48.796;9.026;2023-07-02T23:37:03;20.70;51.40
15298;DHT22;7750;48.796;9.026;2023-07-02T23:42:04;20.70;51.60
15298;DHT22;7750;48.796;9.026;2023-07-02T23:47:05;20.70;51.70
15298;DHT22;7750;48.796;9.026;2023-07-02T23:52:06;20.70;51.80
15298;DHT22;7750;48.796;9.026;2023-07-02T23:57:07;20.70;52.00
